sensor_id;sensor_type;location;lat;lon;timestamp;P1;durP1;ratioP1;P2;durP2;ratioP2
21352;SDS011;10834;52.268;6.770;2023-03-14T00:00:42;8.27;;;3.13;;
21352;SDS011;10834;52.268;6.770;2023-03-14T00:03:28;5.33;;;2.10;;
21352;SDS011;10834;52.268;6.770;2023-03-14T00:06:15;7.27;;;2.60;;
21352;SDS011;10834;52.268;6.770;2023-03-14T00:09:02;6.17;;;2.40;;
21352;SDS011;10834;52.268;6.770;2023-03-14T00:11:48;5.10;;;2.33;;
21352;SDS011;10834;52.268;6.770;2023-03-14T00:14:34;6.53;;;2.57;;
21352;SDS011;10834;52.268;6.770;2023-03-14T00:17:20;8.77;;;2.27;;
21352;SDS011;10834;52.268;6.770;2023-03-14T00:20:06;3.63;;;2.10;;
21352;SDS011;10834;52.268;6.770;2023-03-14T00:22:53;9.20;;;2.47;;
21352;SDS011;10834;52.268;6.770;2023-03-14T00:25:39;6.80;;;2.53;;
21352;SDS011;10834;52.268;6.770;2023-03-14T00:28:25;9.30;;;2.10;;
21352;SDS011;10834;52.268;6.770;2023-03-14T00:31:13;6.67;;;2.23;;
21352;SDS011;10834;52.268;6.770;2023-03-14T00:34:00;8.40;;;3.17;;
21352;SDS011;10834;52.268;6.770;2023-03-14T00:36:46;8.63;;;2.20;;
21352;SDS011;10834;52.268;6.770;2023-03-14T00:39:32;11.50;;;2.40;;
21352;SDS011;10834;52.268;6.770;2023-03-14T00:42:18;4.53;;;1.80;;
21352;SDS011;10834;52.268;6.770;2023-03-14T00:45:04;7.67;;;2.70;;
21352;SDS011;10834;52.268;6.770;2023-03-14T00:47:52;6.13;;;2.33;;
21352;SDS011;10834;52.268;6.770;2023-03-14T00:50:39;5.73;;;2.00;;
21352;SDS011;10834;52.268;6.770;2023-03-14T00:53:25;8.37;;;2.87;;
21352;SDS011;10834;52.268;6.770;2023-03-14T00:56:11;5.57;;;2.00;;
21352;SDS011;10834;52.268;6.770;2023-03-14T00:58:58;7.10;;;2.40;;
21352;SDS011;10834;52.268;6.770;2023-03-14T01:01:44;7.80;;;2.67;;
21352;SDS011;10834;52.268;6.770;2023-03-14T01:04:30;5.67;;;2.50;;
21352;SDS011;10834;52.268;6.770;2023-03-14T01:07:16;9.43;;;2.20;;
21352;SDS011;10834;52.268;6.770;2023-03-14T01:10:03;8.00;;;3.33;;
21352;SDS011;10834;52.268;6.770;2023-03-14T01:12:50;5.93;;;2.07;;
21352;SDS011;10834;52.268;6.770;2023-03-14T01:15:37;4.70;;;1.90;;
21352;SDS011;10834;52.268;6.770;2023-03-14T01:18:23;5.37;;;2.23;;
21352;SDS011;10834;52.268;6.770;2023-03-14T01:21:11;5.63;;;1.47;;
21352;SDS011;10834;52.268;6.770;2023-03-14T01:24:00;6.83;;;2.30;;
21352;SDS011;10834;52.268;6.770;2023-03-14T01:26:48;4.63;;;1.87;;
21352;SDS011;10834;52.268;6.770;2023-03-14T01:29:34;8.70;;;2.90;;
21352;SDS011;10834;52.268;6.770;2023-03-14T01:32:20;6.73;;;2.33;;
21352;SDS011;10834;52.268;6.770;2023-03-14T01:35:06;9.00;;;2.40;;
21352;SDS011;10834;52.268;6.770;2023-03-14T01:37:53;7.97;;;2.03;;
21352;SDS011;10834;52.268;6.770;2023-03-14T01:40:43;7.33;;;2.37;;
21352;SDS011;10834;52.268;6.770;2023-03-14T01:43:30;5.17;;;1.87;;
21352;SDS011;10834;52.268;6.770;2023-03-14T01:49:16;6.73;;;2.03;;
21352;SDS011;10834;52.268;6.770;2023-03-14T01:54:55;5.77;;;2.00;;
21352;SDS011;10834;52.268;6.770;2023-03-14T01:57:48;11.73;;;2.10;;
21352;SDS011;10834;52.268;6.770;2023-03-14T02:00:37;8.27;;;2.03;;
21352;SDS011;10834;52.268;6.770;2023-03-14T02:03:24;4.50;;;2.20;;
21352;SDS011;10834;52.268;6.770;2023-03-14T02:06:12;7.73;;;2.70;;
21352;SDS011;10834;52.268;6.770;2023-03-14T02:09:02;3.73;;;1.83;;
21352;SDS011;10834;52.268;6.770;2023-03-14T02:11:49;8.77;;;2.83;;
21352;SDS011;10834;52.268;6.770;2023-03-14T02:14:36;7.80;;;1.93;;
21352;SDS011;10834;52.268;6.770;2023-03-14T02:17:23;9.23;;;2.00;;
21352;SDS011;10834;52.268;6.770;2023-03-14T02:23:08;8.37;;;2.50;;
21352;SDS011;10834;52.268;6.770;2023-03-14T02:25:56;5.73;;;2.00;;
21352;SDS011;10834;52.268;6.770;2023-03-14T02:28:47;7.00;;;1.97;;
21352;SDS011;10834;52.268;6.770;2023-03-14T02:31:34;9.40;;;2.30;;
21352;SDS011;10834;52.268;6.770;2023-03-14T02:34:20;8.33;;;2.40;;
21352;SDS011;10834;52.268;6.770;2023-03-14T02:37:06;6.13;;;1.90;;
21352;SDS011;10834;52.268;6.770;2023-03-14T02:39:52;5.70;;;1.60;;
21352;SDS011;10834;52.268;6.770;2023-03-14T02:42:39;4.07;;;1.30;;
21352;SDS011;10834;52.268;6.770;2023-03-14T02:48:22;7.47;;;1.80;;
21352;SDS011;10834;52.268;6.770;2023-03-14T02:51:11;8.30;;;1.93;;
21352;SDS011;10834;52.268;6.770;2023-03-14T02:53:58;4.90;;;1.60;;
21352;SDS011;10834;52.268;6.770;2023-03-14T02:56:44;4.93;;;1.50;;
21352;SDS011;10834;52.268;6.770;2023-03-14T02:59:30;6.67;;;2.27;;
21352;SDS011;10834;52.268;6.770;2023-03-14T03:02:17;3.93;;;1.23;;
21352;SDS011;10834;52.268;6.770;2023-03-14T03:05:03;8.23;;;2.07;;
21352;SDS011;10834;52.268;6.770;2023-03-14T03:07:49;6.30;;;2.00;;
21352;SDS011;10834;52.268;6.770;2023-03-14T03:10:36;6.60;;;2.27;;
21352;SDS011;10834;52.268;6.770;2023-03-14T03:13:22;3.33;;;1.97;;
21352;SDS011;10834;52.268;6.770;2023-03-14T03:16:08;8.03;;;2.10;;
21352;SDS011;10834;52.268;6.770;2023-03-14T03:18:54;9.03;;;1.97;;
21352;SDS011;10834;52.268;6.770;2023-03-14T03:21:40;8.43;;;2.10;;
21352;SDS011;10834;52.268;6.770;2023-03-14T03:24:26;6.03;;;2.07;;
21352;SDS011;10834;52.268;6.770;2023-03-14T03:27:12;7.20;;;2.20;;
21352;SDS011;10834;52.268;6.770;2023-03-14T03:29:58;8.90;;;2.23;;
21352;SDS011;10834;52.268;6.770;2023-03-14T03:32:45;6.33;;;2.20;;
21352;SDS011;10834;52.268;6.770;2023-03-14T03:35:31;3.23;;;1.47;;
21352;SDS011;10834;52.268;6.770;2023-03-14T03:38:17;6.17;;;2.10;;
21352;SDS011;10834;52.268;6.770;2023-03-14T03:41:05;10.33;;;1.83;;
21352;SDS011;10834;52.268;6.770;2023-03-14T03:43:52;6.40;;;1.40;;
21352;SDS011;10834;52.268;6.770;2023-03-14T03:46:39;3.97;;;1.83;;
21352;SDS011;10834;52.268;6.770;2023-03-14T03:49:28;9.33;;;2.00;;
21352;SDS011;10834;52.268;6.770;2023-03-14T03:52:15;8.50;;;2.33;;
21352;SDS011;10834;52.268;6.770;2023-03-14T03:55:01;6.10;;;2.00;;
21352;SDS011;10834;52.268;6.770;2023-03-14T03:57:48;5.33;;;1.90;;
21352;SDS011;10834;52.268;6.770;2023-03-14T04:00:34;6.53;;;1.63;;
21352;SDS011;10834;52.268;6.770;2023-03-14T04:03:20;5.07;;;1.07;;
21352;SDS011;10834;52.268;6.770;2023-03-14T04:06:07;4.57;;;1.00;;
21352;SDS011;10834;52.268;6.770;2023-03-14T04:08:54;7.93;;;1.77;;
21352;SDS011;10834;52.268;6.770;2023-03-14T04:11:40;6.13;;;1.53;;
21352;SDS011;10834;52.268;6.770;2023-03-14T04:14:27;4.03;;;1.37;;
21352;SDS011;10834;52.268;6.770;2023-03-14T04:17:13;6.90;;;1.60;;
21352;SDS011;10834;52.268;6.770;2023-03-14T04:19:59;10.87;;;1.70;;
21352;SDS011;10834;52.268;6.770;2023-03-14T04:22:45;5.57;;;1.60;;
21352;SDS011;10834;52.268;6.770;2023-03-14T04:25:31;4.97;;;1.87;;
21352;SDS011;10834;52.268;6.770;2023-03-14T04:28:17;4.73;;;1.57;;
21352;SDS011;10834;52.268;6.770;2023-03-14T04:31:07;4.80;;;1.30;;
21352;SDS011;10834;52.268;6.770;2023-03-14T04:33:54;5.13;;;1.23;;
21352;SDS011;10834;52.268;6.770;2023-03-14T04:36:40;4.80;;;1.73;;
21352;SDS011;10834;52.268;6.770;2023-03-14T04:39:26;8.23;;;1.43;;
21352;SDS011;10834;52.268;6.770;2023-03-14T04:42:12;9.83;;;1.90;;
21352;SDS011;10834;52.268;6.770;2023-03-14T04:44:58;6.07;;;1.33;;
21352;SDS011;10834;52.268;6.770;2023-03-14T04:47:45;12.00;;;2.13;;
21352;SDS011;10834;52.268;6.770;2023-03-14T04:50:31;5.30;;;1.73;;
21352;SDS011;10834;52.268;6.770;2023-03-14T04:53:17;6.07;;;2.33;;
21352;SDS011;10834;52.268;6.770;2023-03-14T04:56:04;8.53;;;2.43;;
21352;SDS011;10834;52.268;6.770;2023-03-14T04:58:51;6.33;;;1.53;;
21352;SDS011;10834;52.268;6.770;2023-03-14T05:01:37;4.03;;;1.60;;
21352;SDS011;10834;52.268;6.770;2023-03-14T05:04:23;7.80;;;1.40;;
21352;SDS011;10834;52.268;6.770;2023-03-14T05:07:09;8.30;;;1.97;;
21352;SDS011;10834;52.268;6.770;2023-03-14T05:09:55;4.63;;;2.00;;
21352;SDS011;10834;52.268;6.770;2023-03-14T05:12:41;6.17;;;1.90;;
21352;SDS011;10834;52.268;6.770;2023-03-14T05:15:27;5.23;;;1.77;;
21352;SDS011;10834;52.268;6.770;2023-03-14T05:18:13;7.93;;;1.53;;
21352;SDS011;10834;52.268;6.770;2023-03-14T05:20:59;6.63;;;1.90;;
21352;SDS011;10834;52.268;6.770;2023-03-14T05:23:45;7.97;;;1.70;;
21352;SDS011;10834;52.268;6.770;2023-03-14T05:26:31;8.93;;;1.93;;
21352;SDS011;10834;52.268;6.770;2023-03-14T05:29:17;9.23;;;2.17;;
21352;SDS011;10834;52.268;6.770;2023-03-14T05:32:03;14.67;;;2.37;;
21352;SDS011;10834;52.268;6.770;2023-03-14T05:34:49;6.03;;;1.50;;
21352;SDS011;10834;52.268;6.770;2023-03-14T05:37:35;8.60;;;1.83;;
21352;SDS011;10834;52.268;6.770;2023-03-14T05:40:21;12.57;;;2.00;;
21352;SDS011;10834;52.268;6.770;2023-03-14T05:43:07;6.60;;;1.60;;
21352;SDS011;10834;52.268;6.770;2023-03-14T05:45:53;5.77;;;1.40;;
21352;SDS011;10834;52.268;6.770;2023-03-14T05:48:40;9.57;;;1.73;;
21352;SDS011;10834;52.268;6.770;2023-03-14T05:51:26;8.73;;;1.93;;
21352;SDS011;10834;52.268;6.770;2023-03-14T05:54:12;5.60;;;1.77;;
21352;SDS011;10834;52.268;6.770;2023-03-14T05:56:58;5.63;;;1.37;;
21352;SDS011;10834;52.268;6.770;2023-03-14T05:59:44;8.77;;;1.57;;
21352;SDS011;10834;52.268;6.770;2023-03-14T06:02:30;9.83;;;1.67;;
21352;SDS011;10834;52.268;6.770;2023-03-14T06:05:16;7.67;;;1.53;;
21352;SDS011;10834;52.268;6.770;2023-03-14T06:08:03;4.17;;;1.10;;
21352;SDS011;10834;52.268;6.770;2023-03-14T06:10:49;6.60;;;1.53;;
21352;SDS011;10834;52.268;6.770;2023-03-14T06:13:35;6.70;;;1.53;;
21352;SDS011;10834;52.268;6.770;2023-03-14T06:16:22;5.97;;;1.47;;
21352;SDS011;10834;52.268;6.770;2023-03-14T06:19:08;10.77;;;1.37;;
21352;SDS011;10834;52.268;6.770;2023-03-14T06:21:54;4.67;;;1.40;;
21352;SDS011;10834;52.268;6.770;2023-03-14T06:24:40;5.30;;;1.40;;
21352;SDS011;10834;52.268;6.770;2023-03-14T06:27:26;4.17;;;1.47;;
21352;SDS011;10834;52.268;6.770;2023-03-14T06:30:12;4.47;;;1.13;;
21352;SDS011;10834;52.268;6.770;2023-03-14T06:32:59;3.63;;;1.00;;
21352;SDS011;10834;52.268;6.770;2023-03-14T06:35:45;4.20;;;1.33;;
21352;SDS011;10834;52.268;6.770;2023-03-14T06:38:31;5.40;;;1.30;;
21352;SDS011;10834;52.268;6.770;2023-03-14T06:41:17;8.53;;;1.33;;
21352;SDS011;10834;52.268;6.770;2023-03-14T06:44:03;5.70;;;1.60;;
21352;SDS011;10834;52.268;6.770;2023-03-14T06:46:50;3.37;;;1.10;;
21352;SDS011;10834;52.268;6.770;2023-03-14T06:49:36;5.23;;;1.63;;
21352;SDS011;10834;52.268;6.770;2023-03-14T06:52:22;6.60;;;1.80;;
21352;SDS011;10834;52.268;6.770;2023-03-14T06:55:08;2.77;;;1.77;;
21352;SDS011;10834;52.268;6.770;2023-03-14T06:57:54;6.43;;;2.00;;
21352;SDS011;10834;52.268;6.770;2023-03-14T07:00:40;8.53;;;2.00;;
21352;SDS011;10834;52.268;6.770;2023-03-14T07:03:27;5.67;;;1.63;;
21352;SDS011;10834;52.268;6.770;2023-03-14T07:06:13;4.97;;;1.90;;
21352;SDS011;10834;52.268;6.770;2023-03-14T07:08:59;6.57;;;1.67;;
21352;SDS011;10834;52.268;6.770;2023-03-14T07:11:45;3.67;;;1.40;;
21352;SDS011;10834;52.268;6.770;2023-03-14T07:14:31;2.33;;;1.33;;
21352;SDS011;10834;52.268;6.770;2023-03-14T07:17:17;5.77;;;1.53;;
21352;SDS011;10834;52.268;6.770;2023-03-14T07:20:04;3.77;;;1.57;;
21352;SDS011;10834;52.268;6.770;2023-03-14T07:22:50;4.40;;;1.97;;
21352;SDS011;10834;52.268;6.770;2023-03-14T07:25:36;2.80;;;1.27;;
21352;SDS011;10834;52.268;6.770;2023-03-14T07:28:22;5.23;;;1.40;;
21352;SDS011;10834;52.268;6.770;2023-03-14T07:31:09;5.20;;;1.20;;
21352;SDS011;10834;52.268;6.770;2023-03-14T07:33:55;4.13;;;1.77;;
21352;SDS011;10834;52.268;6.770;2023-03-14T07:36:41;2.30;;;1.43;;
21352;SDS011;10834;52.268;6.770;2023-03-14T07:39:27;3.40;;;1.77;;
21352;SDS011;10834;52.268;6.770;2023-03-14T07:42:13;3.40;;;2.00;;
21352;SDS011;10834;52.268;6.770;2023-03-14T07:44:59;4.70;;;1.70;;
21352;SDS011;10834;52.268;6.770;2023-03-14T07:47:45;5.63;;;2.03;;
21352;SDS011;10834;52.268;6.770;2023-03-14T07:50:31;3.87;;;1.70;;
21352;SDS011;10834;52.268;6.770;2023-03-14T07:53:18;2.80;;;2.20;;
21352;SDS011;10834;52.268;6.770;2023-03-14T07:56:04;4.43;;;1.93;;
21352;SDS011;10834;52.268;6.770;2023-03-14T07:58:50;3.73;;;2.20;;
21352;SDS011;10834;52.268;6.770;2023-03-14T08:01:36;4.73;;;1.90;;
21352;SDS011;10834;52.268;6.770;2023-03-14T08:04:26;4.43;;;2.17;;
21352;SDS011;10834;52.268;6.770;2023-03-14T08:07:12;6.10;;;1.90;;
21352;SDS011;10834;52.268;6.770;2023-03-14T08:09:58;4.43;;;2.90;;
21352;SDS011;10834;52.268;6.770;2023-03-14T08:12:44;3.80;;;2.43;;
21352;SDS011;10834;52.268;6.770;2023-03-14T08:15:30;4.43;;;2.03;;
21352;SDS011;10834;52.268;6.770;2023-03-14T08:18:17;2.57;;;1.70;;
21352;SDS011;10834;52.268;6.770;2023-03-14T08:21:03;1.57;;;0.70;;
21352;SDS011;10834;52.268;6.770;2023-03-14T08:23:49;0.53;;;0.40;;
21352;SDS011;10834;52.268;6.770;2023-03-14T08:26:35;0.33;;;0.33;;
21352;SDS011;10834;52.268;6.770;2023-03-14T08:29:21;2.57;;;1.13;;
21352;SDS011;10834;52.268;6.770;2023-03-14T08:32:07;0.73;;;0.30;;
21352;SDS011;10834;52.268;6.770;2023-03-14T08:34:53;2.40;;;0.47;;
21352;SDS011;10834;52.268;6.770;2023-03-14T08:37:39;0.53;;;0.33;;
21352;SDS011;10834;52.268;6.770;2023-03-14T08:40:26;0.57;;;0.30;;
21352;SDS011;10834;52.268;6.770;2023-03-14T08:43:12;0.80;;;0.60;;
21352;SDS011;10834;52.268;6.770;2023-03-14T08:45:59;0.63;;;0.60;;
21352;SDS011;10834;52.268;6.770;2023-03-14T08:48:46;1.73;;;0.50;;
21352;SDS011;10834;52.268;6.770;2023-03-14T08:51:32;1.23;;;0.50;;
21352;SDS011;10834;52.268;6.770;2023-03-14T08:54:19;0.87;;;0.57;;
21352;SDS011;10834;52.268;6.770;2023-03-14T08:57:05;1.63;;;0.80;;
21352;SDS011;10834;52.268;6.770;2023-03-14T08:59:51;2.70;;;0.87;;
21352;SDS011;10834;52.268;6.770;2023-03-14T09:02:37;3.70;;;1.00;;
21352;SDS011;10834;52.268;6.770;2023-03-14T09:05:24;1.83;;;0.70;;
21352;SDS011;10834;52.268;6.770;2023-03-14T09:08:10;1.40;;;0.67;;
21352;SDS011;10834;52.268;6.770;2023-03-14T09:10:56;2.73;;;0.60;;
21352;SDS011;10834;52.268;6.770;2023-03-14T09:13:42;2.30;;;0.73;;
21352;SDS011;10834;52.268;6.770;2023-03-14T09:16:28;3.27;;;0.60;;
21352;SDS011;10834;52.268;6.770;2023-03-14T09:19:14;0.97;;;0.47;;
21352;SDS011;10834;52.268;6.770;2023-03-14T09:22:00;2.97;;;0.50;;
21352;SDS011;10834;52.268;6.770;2023-03-14T09:24:47;2.47;;;0.97;;
21352;SDS011;10834;52.268;6.770;2023-03-14T09:27:33;2.00;;;0.90;;
21352;SDS011;10834;52.268;6.770;2023-03-14T09:30:19;1.70;;;0.30;;
21352;SDS011;10834;52.268;6.770;2023-03-14T09:33:05;1.00;;;0.40;;
21352;SDS011;10834;52.268;6.770;2023-03-14T09:35:51;2.63;;;0.30;;
21352;SDS011;10834;52.268;6.770;2023-03-14T09:38:37;0.93;;;0.30;;
21352;SDS011;10834;52.268;6.770;2023-03-14T09:41:28;1.10;;;0.30;;
21352;SDS011;10834;52.268;6.770;2023-03-14T09:44:27;1.57;;;0.30;;
21352;SDS011;10834;52.268;6.770;2023-03-14T09:47:15;0.87;;;0.23;;
21352;SDS011;10834;52.268;6.770;2023-03-14T09:50:05;1.63;;;0.30;;
21352;SDS011;10834;52.268;6.770;2023-03-14T09:52:59;0.90;;;0.70;;
21352;SDS011;10834;52.268;6.770;2023-03-14T09:55:50;1.93;;;0.50;;
21352;SDS011;10834;52.268;6.770;2023-03-14T09:58:37;1.90;;;0.60;;
21352;SDS011;10834;52.268;6.770;2023-03-14T10:01:27;1.13;;;0.40;;
21352;SDS011;10834;52.268;6.770;2023-03-14T10:04:15;0.40;;;0.33;;
21352;SDS011;10834;52.268;6.770;2023-03-14T10:07:07;0.40;;;0.40;;
21352;SDS011;10834;52.268;6.770;2023-03-14T10:09:59;1.67;;;0.50;;
21352;SDS011;10834;52.268;6.770;2023-03-14T10:12:55;0.77;;;0.70;;
21352;SDS011;10834;52.268;6.770;2023-03-14T10:15:46;3.57;;;0.53;;
21352;SDS011;10834;52.268;6.770;2023-03-14T10:18:39;2.47;;;0.40;;
21352;SDS011;10834;52.268;6.770;2023-03-14T10:21:30;2.53;;;0.40;;
21352;SDS011;10834;52.268;6.770;2023-03-14T10:24:26;4.10;;;0.60;;
21352;SDS011;10834;52.268;6.770;2023-03-14T10:27:18;2.30;;;0.50;;
21352;SDS011;10834;52.268;6.770;2023-03-14T10:30:07;3.37;;;0.47;;
21352;SDS011;10834;52.268;6.770;2023-03-14T10:36:20;3.17;;;0.80;;
21352;SDS011;10834;52.268;6.770;2023-03-14T10:42:04;6.67;;;1.50;;
21352;SDS011;10834;52.268;6.770;2023-03-14T10:45:02;7.13;;;1.20;;
21352;SDS011;10834;52.268;6.770;2023-03-14T10:47:52;5.03;;;1.10;;
21352;SDS011;10834;52.268;6.770;2023-03-14T10:50:39;7.93;;;1.87;;
21352;SDS011;10834;52.268;6.770;2023-03-14T10:53:48;3.73;;;1.10;;
21352;SDS011;10834;52.268;6.770;2023-03-14T10:56:58;5.27;;;0.97;;
21352;SDS011;10834;52.268;6.770;2023-03-14T10:59:45;6.90;;;1.80;;
21352;SDS011;10834;52.268;6.770;2023-03-14T11:09:04;6.33;;;1.47;;
21352;SDS011;10834;52.268;6.770;2023-03-14T11:11:53;10.80;;;1.73;;
21352;SDS011;10834;52.268;6.770;2023-03-14T11:14:43;5.17;;;1.30;;
21352;SDS011;10834;52.268;6.770;2023-03-14T11:17:41;13.93;;;1.70;;
21352;SDS011;10834;52.268;6.770;2023-03-14T11:32:50;14.60;;;2.43;;
21352;SDS011;10834;52.268;6.770;2023-03-14T11:35:55;12.60;;;3.00;;
21352;SDS011;10834;52.268;6.770;2023-03-14T11:38:58;12.97;;;2.40;;
21352;SDS011;10834;52.268;6.770;2023-03-14T11:41:53;13.03;;;2.70;;
21352;SDS011;10834;52.268;6.770;2023-03-14T11:44:46;13.53;;;2.77;;
21352;SDS011;10834;52.268;6.770;2023-03-14T11:47:42;10.83;;;2.60;;
21352;SDS011;10834;52.268;6.770;2023-03-14T11:50:30;15.63;;;3.07;;
21352;SDS011;10834;52.268;6.770;2023-03-14T11:56:10;12.93;;;2.50;;
21352;SDS011;10834;52.268;6.770;2023-03-14T11:59:21;14.57;;;3.93;;
21352;SDS011;10834;52.268;6.770;2023-03-14T12:14:34;12.00;;;2.60;;
21352;SDS011;10834;52.268;6.770;2023-03-14T12:17:24;13.23;;;3.27;;
21352;SDS011;10834;52.268;6.770;2023-03-14T12:20:20;14.43;;;2.93;;
21352;SDS011;10834;52.268;6.770;2023-03-14T12:23:10;13.20;;;2.17;;
21352;SDS011;10834;52.268;6.770;2023-03-14T12:34:45;10.57;;;1.77;;
21352;SDS011;10834;52.268;6.770;2023-03-14T12:37:40;8.80;;;1.70;;
21352;SDS011;10834;52.268;6.770;2023-03-14T12:40:35;9.50;;;1.73;;
21352;SDS011;10834;52.268;6.770;2023-03-14T12:43:30;9.23;;;2.33;;
21352;SDS011;10834;52.268;6.770;2023-03-14T12:46:22;10.87;;;2.07;;
21352;SDS011;10834;52.268;6.770;2023-03-14T12:49:10;10.90;;;1.90;;
21352;SDS011;10834;52.268;6.770;2023-03-14T12:51:59;9.83;;;1.57;;
21352;SDS011;10834;52.268;6.770;2023-03-14T13:00:39;6.87;;;1.90;;
21352;SDS011;10834;52.268;6.770;2023-03-14T13:03:27;10.47;;;1.57;;
21352;SDS011;10834;52.268;6.770;2023-03-14T13:10:03;5.57;;;1.60;;
21352;SDS011;10834;52.268;6.770;2023-03-14T13:13:03;6.17;;;1.87;;
21352;SDS011;10834;52.268;6.770;2023-03-14T13:16:00;8.37;;;1.77;;
21352;SDS011;10834;52.268;6.770;2023-03-14T13:18:50;7.10;;;1.40;;
21352;SDS011;10834;52.268;6.770;2023-03-14T13:21:46;6.87;;;1.00;;
21352;SDS011;10834;52.268;6.770;2023-03-14T13:24:35;6.60;;;1.43;;
21352;SDS011;10834;52.268;6.770;2023-03-14T13:27:21;6.93;;;1.97;;
21352;SDS011;10834;52.268;6.770;2023-03-14T13:30:16;9.27;;;1.90;;
21352;SDS011;10834;52.268;6.770;2023-03-14T13:33:05;6.60;;;1.47;;
21352;SDS011;10834;52.268;6.770;2023-03-14T13:35:55;1.90;;;0.77;;
21352;SDS011;10834;52.268;6.770;2023-03-14T13:38:54;2.83;;;0.97;;
21352;SDS011;10834;52.268;6.770;2023-03-14T13:41:45;4.17;;;0.73;;
21352;SDS011;10834;52.268;6.770;2023-03-14T13:44:36;6.73;;;1.00;;
21352;SDS011;10834;52.268;6.770;2023-03-14T13:47:24;1.93;;;1.07;;
21352;SDS011;10834;52.268;6.770;2023-03-14T13:50:13;4.93;;;1.87;;
21352;SDS011;10834;52.268;6.770;2023-03-14T13:53:01;4.93;;;1.13;;
21352;SDS011;10834;52.268;6.770;2023-03-14T13:55:48;6.33;;;1.57;;
21352;SDS011;10834;52.268;6.770;2023-03-14T13:58:35;5.37;;;1.43;;
21352;SDS011;10834;52.268;6.770;2023-03-14T14:04:28;8.10;;;0.90;;
21352;SDS011;10834;52.268;6.770;2023-03-14T14:07:17;10.07;;;1.53;;
21352;SDS011;10834;52.268;6.770;2023-03-14T14:10:04;2.37;;;1.27;;
21352;SDS011;10834;52.268;6.770;2023-03-14T14:12:58;3.63;;;1.20;;
21352;SDS011;10834;52.268;6.770;2023-03-14T14:15:48;7.47;;;1.60;;
21352;SDS011;10834;52.268;6.770;2023-03-14T14:18:38;8.37;;;1.83;;
21352;SDS011;10834;52.268;6.770;2023-03-14T14:21:24;4.23;;;2.20;;
21352;SDS011;10834;52.268;6.770;2023-03-14T14:24:13;9.67;;;2.43;;
21352;SDS011;10834;52.268;6.770;2023-03-14T14:27:01;7.83;;;2.20;;
21352;SDS011;10834;52.268;6.770;2023-03-14T14:30:01;5.17;;;1.37;;
21352;SDS011;10834;52.268;6.770;2023-03-14T14:33:19;5.30;;;1.30;;
21352;SDS011;10834;52.268;6.770;2023-03-14T14:36:12;5.87;;;1.40;;
21352;SDS011;10834;52.268;6.770;2023-03-14T14:39:05;8.13;;;1.80;;
21352;SDS011;10834;52.268;6.770;2023-03-14T14:42:15;7.17;;;1.63;;
21352;SDS011;10834;52.268;6.770;2023-03-14T14:45:04;4.73;;;1.90;;
21352;SDS011;10834;52.268;6.770;2023-03-14T14:47:58;2.17;;;1.00;;
21352;SDS011;10834;52.268;6.770;2023-03-14T14:53:38;3.87;;;0.83;;
21352;SDS011;10834;52.268;6.770;2023-03-14T14:56:26;6.77;;;1.00;;
21352;SDS011;10834;52.268;6.770;2023-03-14T14:59:24;6.03;;;1.20;;
21352;SDS011;10834;52.268;6.770;2023-03-14T15:05:33;7.13;;;1.00;;
21352;SDS011;10834;52.268;6.770;2023-03-14T15:08:21;4.47;;;0.90;;
21352;SDS011;10834;52.268;6.770;2023-03-14T15:11:08;6.10;;;0.90;;
21352;SDS011;10834;52.268;6.770;2023-03-14T15:14:08;2.67;;;0.70;;
21352;SDS011;10834;52.268;6.770;2023-03-14T15:16:55;7.07;;;0.90;;
21352;SDS011;10834;52.268;6.770;2023-03-14T15:19:41;6.50;;;1.33;;
21352;SDS011;10834;52.268;6.770;2023-03-14T15:22:28;2.30;;;0.80;;
21352;SDS011;10834;52.268;6.770;2023-03-14T15:25:14;7.93;;;1.60;;
21352;SDS011;10834;52.268;6.770;2023-03-14T15:28:00;5.67;;;1.00;;
21352;SDS011;10834;52.268;6.770;2023-03-14T15:30:48;8.57;;;1.17;;
21352;SDS011;10834;52.268;6.770;2023-03-14T15:33:38;7.43;;;1.40;;
21352;SDS011;10834;52.268;6.770;2023-03-14T15:36:25;4.87;;;1.00;;
21352;SDS011;10834;52.268;6.770;2023-03-14T15:39:13;7.43;;;1.17;;
21352;SDS011;10834;52.268;6.770;2023-03-14T15:41:59;4.60;;;1.30;;
21352;SDS011;10834;52.268;6.770;2023-03-14T15:44:45;7.03;;;0.93;;
21352;SDS011;10834;52.268;6.770;2023-03-14T15:47:31;8.80;;;1.50;;
21352;SDS011;10834;52.268;6.770;2023-03-14T15:50:17;7.53;;;0.90;;
21352;SDS011;10834;52.268;6.770;2023-03-14T15:53:04;3.83;;;1.57;;
21352;SDS011;10834;52.268;6.770;2023-03-14T15:55:50;7.40;;;1.30;;
21352;SDS011;10834;52.268;6.770;2023-03-14T15:58:36;5.63;;;1.40;;
21352;SDS011;10834;52.268;6.770;2023-03-14T16:01:25;4.17;;;1.03;;
21352;SDS011;10834;52.268;6.770;2023-03-14T16:04:12;4.57;;;0.80;;
21352;SDS011;10834;52.268;6.770;2023-03-14T16:06:58;5.27;;;1.20;;
21352;SDS011;10834;52.268;6.770;2023-03-14T16:09:44;13.50;;;1.87;;
21352;SDS011;10834;52.268;6.770;2023-03-14T16:12:30;3.63;;;0.90;;
21352;SDS011;10834;52.268;6.770;2023-03-14T16:15:16;6.93;;;1.17;;
21352;SDS011;10834;52.268;6.770;2023-03-14T16:18:03;5.47;;;0.97;;
21352;SDS011;10834;52.268;6.770;2023-03-14T16:21:10;6.33;;;1.27;;
21352;SDS011;10834;52.268;6.770;2023-03-14T16:23:58;6.73;;;1.20;;
21352;SDS011;10834;52.268;6.770;2023-03-14T16:26:44;5.27;;;1.33;;
21352;SDS011;10834;52.268;6.770;2023-03-14T16:29:32;4.37;;;1.60;;
21352;SDS011;10834;52.268;6.770;2023-03-14T16:32:19;7.97;;;1.67;;
21352;SDS011;10834;52.268;6.770;2023-03-14T16:35:05;7.87;;;1.80;;
21352;SDS011;10834;52.268;6.770;2023-03-14T16:37:51;7.17;;;1.87;;
21352;SDS011;10834;52.268;6.770;2023-03-14T16:40:38;5.30;;;1.20;;
21352;SDS011;10834;52.268;6.770;2023-03-14T16:43:24;8.97;;;1.83;;
21352;SDS011;10834;52.268;6.770;2023-03-14T16:46:11;8.63;;;1.40;;
21352;SDS011;10834;52.268;6.770;2023-03-14T16:49:01;6.33;;;1.10;;
21352;SDS011;10834;52.268;6.770;2023-03-14T16:51:47;3.97;;;1.50;;
21352;SDS011;10834;52.268;6.770;2023-03-14T16:54:34;5.20;;;2.03;;
21352;SDS011;10834;52.268;6.770;2023-03-14T16:57:20;5.47;;;3.00;;
21352;SDS011;10834;52.268;6.770;2023-03-14T17:00:06;8.20;;;2.67;;
21352;SDS011;10834;52.268;6.770;2023-03-14T17:02:56;7.53;;;2.90;;
21352;SDS011;10834;52.268;6.770;2023-03-14T17:05:48;11.67;;;3.97;;
21352;SDS011;10834;52.268;6.770;2023-03-14T17:08:36;12.17;;;3.00;;
21352;SDS011;10834;52.268;6.770;2023-03-14T17:11:22;5.10;;;2.90;;
21352;SDS011;10834;52.268;6.770;2023-03-14T17:14:09;6.57;;;1.90;;
21352;SDS011;10834;52.268;6.770;2023-03-14T17:16:55;5.60;;;1.83;;
21352;SDS011;10834;52.268;6.770;2023-03-14T17:19:41;5.57;;;3.67;;
21352;SDS011;10834;52.268;6.770;2023-03-14T17:22:27;6.63;;;2.00;;
21352;SDS011;10834;52.268;6.770;2023-03-14T17:25:13;9.30;;;1.97;;
21352;SDS011;10834;52.268;6.770;2023-03-14T17:27:59;6.20;;;1.43;;
21352;SDS011;10834;52.268;6.770;2023-03-14T17:30:45;9.90;;;1.73;;
21352;SDS011;10834;52.268;6.770;2023-03-14T17:33:31;10.80;;;1.97;;
21352;SDS011;10834;52.268;6.770;2023-03-14T17:36:17;12.13;;;2.77;;
21352;SDS011;10834;52.268;6.770;2023-03-14T17:39:03;7.90;;;1.83;;
21352;SDS011;10834;52.268;6.770;2023-03-14T17:41:49;7.33;;;1.77;;
21352;SDS011;10834;52.268;6.770;2023-03-14T17:44:35;6.60;;;1.93;;
21352;SDS011;10834;52.268;6.770;2023-03-14T17:47:21;8.17;;;1.50;;
21352;SDS011;10834;52.268;6.770;2023-03-14T17:50:08;5.60;;;1.47;;
21352;SDS011;10834;52.268;6.770;2023-03-14T17:52:54;8.23;;;1.07;;
21352;SDS011;10834;52.268;6.770;2023-03-14T17:55:40;6.97;;;1.23;;
21352;SDS011;10834;52.268;6.770;2023-03-14T17:58:26;6.03;;;1.20;;
21352;SDS011;10834;52.268;6.770;2023-03-14T18:01:14;10.77;;;1.50;;
21352;SDS011;10834;52.268;6.770;2023-03-14T18:04:01;8.53;;;1.60;;
21352;SDS011;10834;52.268;6.770;2023-03-14T18:06:47;8.67;;;1.67;;
21352;SDS011;10834;52.268;6.770;2023-03-14T18:09:34;8.07;;;1.50;;